createdAt,value
2019-06-15T00:01:35.658Z,43.58
2019-06-15T00:04:05.771Z,43.66
2019-06-15T00:06:36.030Z,43.85
2019-06-15T00:09:07.770Z,44.03
2019-06-15T00:11:38.278Z,44.22
2019-06-15T00:14:08.351Z,44.63
2019-06-15T00:16:38.563Z,44.85
2019-06-15T00:19:08.853Z,45.03
2019-06-15T00:21:39.392Z,45.43
2019-06-15T00:24:09.949Z,45.61
2019-06-15T00:26:40.550Z,45.92
2019-06-15T00:29:10.737Z,46.06
2019-06-15T00:31:41.305Z,46.35
2019-06-15T00:34:12.418Z,46.83
2019-06-15T00:36:43.269Z,46.89
2019-06-15T00:39:14.218Z,47.06
2019-06-15T00:41:44.762Z,47.39
2019-06-15T00:44:14.988Z,47.61
2019-06-15T00:46:45.808Z,48.19
2019-06-15T00:49:16.310Z,48.58
2019-06-15T00:51:46.545Z,48.86
2019-06-15T00:54:17.272Z,49.16
2019-06-15T00:56:47.492Z,49.30
2019-06-15T00:59:18.015Z,49.92
2019-06-15T01:01:48.655Z,50.79
2019-06-15T01:04:18.755Z,51.48
2019-06-15T01:06:48.996Z,51.95
2019-06-15T01:09:19.818Z,52.42
2019-06-15T01:11:50.442Z,53.99
2019-06-15T01:14:20.991Z,56.78
2019-06-15T01:16:50.946Z,58.49
2019-06-15T01:19:21.256Z,58.51
2019-06-15T01:21:51.677Z,58.06
2019-06-15T01:24:21.999Z,59.00
2019-06-15T01:26:51.943Z,59.37
2019-06-15T01:29:22.657Z,58.60
2019-06-15T01:31:53.194Z,58.27
2019-06-15T01:34:23.694Z,58.34
2019-06-15T01:36:54.470Z,58.54
2019-06-15T01:39:24.441Z,58.85
2019-06-15T01:41:55.091Z,59.23
2019-06-15T01:44:25.041Z,59.90
2019-06-15T01:46:55.618Z,60.31
2019-06-15T01:49:25.570Z,60.99
2019-06-15T01:51:55.834Z,61.14
2019-06-15T01:54:26.509Z,61.57
2019-06-15T01:56:56.836Z,62.03
2019-06-15T01:59:27.042Z,62.32
2019-06-15T02:01:57.583Z,62.53
2019-06-15T02:04:28.209Z,62.51
2019-06-15T02:06:59.153Z,62.51
2019-06-15T02:09:29.445Z,62.68
2019-06-15T02:11:59.803Z,62.62
2019-06-15T02:14:30.800Z,62.64
2019-06-15T02:17:01.360Z,62.75
2019-06-15T02:19:32.211Z,62.79
2019-06-15T02:22:02.748Z,63.07
2019-06-15T02:24:33.653Z,63.12
2019-06-15T02:27:03.637Z,63.50
2019-06-15T02:29:33.915Z,63.71
2019-06-15T02:32:03.859Z,64.10
2019-06-15T02:34:34.080Z,64.13
2019-06-15T02:37:04.341Z,64.17
2019-06-15T02:39:34.318Z,64.38
2019-06-15T02:42:05.004Z,64.30
2019-06-15T02:44:35.540Z,64.45
2019-06-15T02:47:05.790Z,64.39
2019-06-15T02:49:36.331Z,64.40
2019-06-15T02:52:06.923Z,64.51
2019-06-15T02:54:37.551Z,64.49
2019-06-15T02:57:08.206Z,64.37
2019-06-15T02:59:39.125Z,64.00
2019-06-15T03:02:09.133Z,63.64
2019-06-15T03:04:39.653Z,63.44
2019-06-15T03:07:10.404Z,63.60
2019-06-15T03:09:40.362Z,63.39
2019-06-15T03:12:10.472Z,63.48
2019-06-15T03:14:41.698Z,63.46
2019-06-15T03:17:12.538Z,63.41
2019-06-15T03:19:43.140Z,63.55
2019-06-15T03:22:13.477Z,63.47
2019-06-15T03:24:44.075Z,63.43
2019-06-15T03:27:14.102Z,63.74
2019-06-15T03:29:44.899Z,63.70
2019-06-15T03:32:16.028Z,63.64
2019-06-15T03:34:46.802Z,63.37
2019-06-15T03:37:17.268Z,63.47
2019-06-15T03:39:47.787Z,63.46
2019-06-15T03:42:18.894Z,63.25
2019-06-15T03:44:49.788Z,63.38
2019-06-15T03:47:20.031Z,63.34
2019-06-15T03:49:50.649Z,63.41
2019-06-15T03:52:20.858Z,63.49
2019-06-15T03:54:51.139Z,63.78
2019-06-15T03:57:21.129Z,64.05
2019-06-15T03:59:51.080Z,64.21
2019-06-15T04:02:21.864Z,64.21
2019-06-15T04:04:52.448Z,64.45
2019-06-15T04:07:22.792Z,64.49
2019-06-15T04:09:53.653Z,64.76
2019-06-15T04:12:23.884Z,64.75
2019-06-15T04:14:54.123Z,64.94
2019-06-15T04:17:24.281Z,64.77
2019-06-15T04:19:54.207Z,64.74
2019-06-15T04:22:25.157Z,64.99
2019-06-15T04:24:56.010Z,64.87
2019-06-15T04:27:26.820Z,64.79
2019-06-15T04:29:57.522Z,64.52
2019-06-15T04:32:28.313Z,64.54
2019-06-15T04:34:58.833Z,64.67
2019-06-15T04:37:29.067Z,64.20
2019-06-15T04:39:59.573Z,63.96
2019-06-15T04:42:30.206Z,63.45
2019-06-15T04:45:00.651Z,63.54
2019-06-15T04:47:31.159Z,63.36
2019-06-15T04:50:01.523Z,62.94
2019-06-15T04:52:32.025Z,63.25
2019-06-15T04:55:01.972Z,62.47
2019-06-15T04:57:32.440Z,61.65
2019-06-15T05:00:02.642Z,61.02
2019-06-15T05:02:33.210Z,60.90
2019-06-15T05:05:03.469Z,60.38
2019-06-15T05:07:34.064Z,60.20
2019-06-15T05:10:04.720Z,59.97
2019-06-15T05:12:35.353Z,59.73
2019-06-15T05:15:06.292Z,60.08
2019-06-15T05:17:37.507Z,59.00
2019-06-15T05:20:09.630Z,58.15
2019-06-15T05:22:39.838Z,57.92
2019-06-15T05:25:10.650Z,57.16
2019-06-15T05:27:40.883Z,55.99
2019-06-15T05:30:12.139Z,55.65
2019-06-15T05:32:43.051Z,54.43
2019-06-15T05:35:13.591Z,53.18
2019-06-15T05:37:44.237Z,52.86
2019-06-15T05:40:14.932Z,53.61
2019-06-15T05:42:44.820Z,53.77
2019-06-15T05:45:15.587Z,53.96
2019-06-15T05:51:45.864Z,54.28
2019-06-15T05:54:16.039Z,55.40
2019-06-15T05:56:46.002Z,56.16
2019-06-15T05:59:16.317Z,53.25
2019-06-15T06:01:46.319Z,47.53
2019-06-15T06:04:16.283Z,46.47
2019-06-15T06:06:46.380Z,44.75
2019-06-15T06:13:04.626Z,38.65
2019-06-15T06:15:34.832Z,36.24
2019-06-15T06:18:05.267Z,38.18
2019-06-15T06:20:35.512Z,44.54
2019-06-15T06:23:06.023Z,49.17
2019-06-15T06:25:35.934Z,50.03
2019-06-15T06:28:06.277Z,49.98
2019-06-15T06:30:36.219Z,46.74
2019-06-15T06:33:06.136Z,41.08
2019-06-15T06:35:36.633Z,41.73
2019-06-15T06:38:06.861Z,41.09
2019-06-15T06:40:37.494Z,44.91
2019-06-15T06:43:07.759Z,47.98
2019-06-15T06:45:38.529Z,49.83
2019-06-15T06:48:08.538Z,51.04
2019-06-15T06:50:41.255Z,51.92
2019-06-15T06:53:11.386Z,52.48
2019-06-15T06:55:41.306Z,52.94
2019-06-15T06:58:11.718Z,53.91
2019-06-15T07:00:41.951Z,53.27
2019-06-15T07:03:12.185Z,53.35
2019-06-15T07:05:43.370Z,54.11
2019-06-15T07:08:13.886Z,54.17
2019-06-15T07:10:43.834Z,53.74
2019-06-15T07:13:14.993Z,52.70
2019-06-15T07:15:44.978Z,52.58
2019-06-15T07:18:15.541Z,53.43
2019-06-15T07:20:45.867Z,52.98
2019-06-15T07:23:16.175Z,53.85
2019-06-15T07:25:46.488Z,53.25
2019-06-15T07:28:18.993Z,52.13
2019-06-15T07:30:50.162Z,51.95
2019-06-15T07:33:21.158Z,52.08
2019-06-15T07:39:39.835Z,52.75
2019-06-15T07:42:10.380Z,52.17
2019-06-15T07:44:40.611Z,52.43
2019-06-15T07:47:11.331Z,52.65
2019-06-15T07:49:42.158Z,51.49
2019-06-15T07:52:12.495Z,50.05
2019-06-15T07:54:43.278Z,49.84
2019-06-15T07:57:14.140Z,47.70
2019-06-15T07:59:44.415Z,46.74
2019-06-15T08:02:14.808Z,45.47
2019-06-15T08:04:45.013Z,45.90
2019-06-15T08:07:15.305Z,46.25
2019-06-15T08:09:45.873Z,45.46
2019-06-15T08:12:16.381Z,45.11
2019-06-15T08:14:47.200Z,44.92
2019-06-15T08:17:17.792Z,45.07
2019-06-15T08:19:48.406Z,43.84
2019-06-15T08:22:18.692Z,43.18
2019-06-15T08:24:48.640Z,42.97
2019-06-15T08:27:18.534Z,41.98
2019-06-15T08:29:48.803Z,42.36
2019-06-15T08:32:19.422Z,43.06
2019-06-15T08:34:50.184Z,42.01
2019-06-15T08:37:20.368Z,43.57
2019-06-15T08:39:51.014Z,39.90
2019-06-15T08:42:20.929Z,34.70
2019-06-15T08:44:50.889Z,32.11
2019-06-15T08:47:47.121Z,32.78
2019-06-15T08:50:17.154Z,30.80
2019-06-15T08:52:47.985Z,30.56
2019-06-15T08:55:18.573Z,28.80
2019-06-15T08:57:49.384Z,28.89
2019-06-15T09:00:19.833Z,29.49
2019-06-15T09:02:50.517Z,29.48
2019-06-15T09:05:21.158Z,28.49
2019-06-15T09:07:51.565Z,28.91
2019-06-15T09:10:21.988Z,28.47
2019-06-15T09:12:52.465Z,30.63
2019-06-15T09:15:44.496Z,28.69
2019-06-15T09:18:14.699Z,27.98
2019-06-15T09:20:45.247Z,30.17
2019-06-15T09:23:15.785Z,29.33
2019-06-15T09:25:46.090Z,29.29
2019-06-15T09:28:16.563Z,29.56
2019-06-15T09:30:47.226Z,28.93
2019-06-15T09:33:17.785Z,28.54
2019-06-15T09:35:47.772Z,28.47
2019-06-15T09:38:17.942Z,27.88
2019-06-15T09:40:48.200Z,28.16
2019-06-15T09:43:18.662Z,30.36
2019-06-15T09:45:48.748Z,28.59
2019-06-15T09:48:20.526Z,28.71
2019-06-15T09:50:50.996Z,29.27
2019-06-15T09:53:21.173Z,27.02
2019-06-15T09:55:51.757Z,27.41
2019-06-15T09:58:22.063Z,27.92
2019-06-15T10:00:52.881Z,28.47
2019-06-15T10:03:23.451Z,28.76
2019-06-15T10:05:54.036Z,28.57
2019-06-15T10:08:24.584Z,28.01
2019-06-15T10:10:54.790Z,28.47
2019-06-15T10:13:25.149Z,29.14
2019-06-15T10:15:55.628Z,29.06
2019-06-15T10:18:25.935Z,28.65
2019-06-15T10:20:56.833Z,29.04
2019-06-15T10:23:30.122Z,29.43
2019-06-15T10:26:00.448Z,30.83
2019-06-15T10:28:31.172Z,34.05
2019-06-15T10:31:05.554Z,36.05
2019-06-15T10:33:35.782Z,36.25
2019-06-15T10:36:09.531Z,37.12
2019-06-15T10:38:40.938Z,36.98
2019-06-15T10:42:30.022Z,37.19
2019-06-15T10:45:00.139Z,37.06
2019-06-15T10:47:30.350Z,36.09
2019-06-15T10:50:00.262Z,35.26
2019-06-15T10:52:30.350Z,35.50
2019-06-15T10:55:00.244Z,36.01
2019-06-15T10:57:30.544Z,35.90
2019-06-15T11:00:00.421Z,35.76
2019-06-15T11:02:30.726Z,35.26
2019-06-15T11:05:01.033Z,34.49
2019-06-15T11:07:31.199Z,36.86
2019-06-15T11:10:01.094Z,35.85
2019-06-15T11:12:45.456Z,36.13
2019-06-15T11:15:02.986Z,36.73
2019-06-15T11:17:33.525Z,36.59
2019-06-15T11:20:03.577Z,36.60
2019-06-15T11:22:33.971Z,35.88
2019-06-15T11:25:03.876Z,36.03
2019-06-15T11:27:33.759Z,36.55
2019-06-15T11:30:12.964Z,36.31
2019-06-15T11:32:35.320Z,36.16
2019-06-15T11:35:05.987Z,35.11
2019-06-15T11:37:36.283Z,34.24
2019-06-15T11:40:06.711Z,34.80
2019-06-15T11:42:37.096Z,35.55
2019-06-15T11:45:07.602Z,35.00
2019-06-15T11:47:37.811Z,36.31
2019-06-15T11:50:11.246Z,36.52
2019-06-15T11:52:39.978Z,37.10
2019-06-15T11:55:09.947Z,38.04
2019-06-15T11:57:40.163Z,39.70
2019-06-15T12:00:10.870Z,37.91
2019-06-15T12:02:40.771Z,38.42
2019-06-15T12:08:46.678Z,37.08
2019-06-15T12:11:16.907Z,37.35
2019-06-15T12:13:47.904Z,38.94
2019-06-15T12:16:17.793Z,39.54
2019-06-15T12:18:48.818Z,39.65
2019-06-15T12:21:18.762Z,39.24
2019-06-15T12:23:49.466Z,38.69
2019-06-15T12:26:19.707Z,37.85
2019-06-15T12:28:50.333Z,36.42
2019-06-15T12:31:20.762Z,35.58
2019-06-15T12:33:51.373Z,34.82
2019-06-15T12:36:22.044Z,35.60
2019-06-15T12:38:52.689Z,36.20
2019-06-15T12:41:23.486Z,37.92
2019-06-15T12:43:53.521Z,37.75
2019-06-15T12:46:23.444Z,38.17
2019-06-15T12:48:54.057Z,36.92
2019-06-15T12:51:24.378Z,36.12
2019-06-15T12:53:54.673Z,38.13
2019-06-15T12:56:24.576Z,37.61
2019-06-15T12:58:55.776Z,37.14
2019-06-15T13:01:26.384Z,37.94
2019-06-15T13:03:57.122Z,37.45
2019-06-15T13:06:27.966Z,36.97
2019-06-15T13:08:58.694Z,36.53
2019-06-15T13:11:28.903Z,37.42
2019-06-15T13:13:59.549Z,37.38
2019-06-15T13:16:38.980Z,37.81
2019-06-15T13:19:02.125Z,38.65
2019-06-15T13:21:32.321Z,39.30
2019-06-15T13:24:02.667Z,37.84
2019-06-15T13:26:33.328Z,38.34
2019-06-15T13:29:03.641Z,37.75
2019-06-15T13:31:33.846Z,37.70
2019-06-15T13:34:04.069Z,37.08
2019-06-15T13:36:34.290Z,37.65
2019-06-15T13:39:06.219Z,36.03
2019-06-15T13:41:36.473Z,36.83
2019-06-15T13:44:06.712Z,37.86
2019-06-15T13:46:37.234Z,39.50
2019-06-15T13:49:07.553Z,41.33
2019-06-15T13:51:37.787Z,40.74
2019-06-15T13:54:08.322Z,40.88
2019-06-15T13:56:38.774Z,40.47
2019-06-15T13:59:08.692Z,40.11
2019-06-15T14:01:39.293Z,39.67
2019-06-15T14:04:10.397Z,39.59
2019-06-15T14:06:40.716Z,38.37
2019-06-15T14:09:10.982Z,38.76
2019-06-15T14:11:41.513Z,39.35
2019-06-15T14:14:11.807Z,39.52
2019-06-15T14:16:41.712Z,39.13
2019-06-15T14:19:12.436Z,38.72
2019-06-15T14:21:43.021Z,37.76
2019-06-15T14:24:13.074Z,36.48
2019-06-15T14:26:43.609Z,37.73
2019-06-15T14:29:17.342Z,40.14
2019-06-15T14:31:50.304Z,38.65
2019-06-15T14:34:18.683Z,38.45
2019-06-15T14:40:49.083Z,38.45
2019-06-15T14:43:19.819Z,38.74
2019-06-15T14:45:59.348Z,40.26
2019-06-15T14:48:23.077Z,40.14
2019-06-15T14:50:54.015Z,39.67
2019-06-15T14:53:24.589Z,38.99
2019-06-15T14:55:56.490Z,39.63
2019-06-15T14:58:27.394Z,40.08
2019-06-15T15:00:57.625Z,39.68
2019-06-15T15:03:27.852Z,38.89
2019-06-15T15:05:58.063Z,39.04
2019-06-15T15:08:28.022Z,38.52
2019-06-15T15:10:58.508Z,38.28
2019-06-15T15:13:28.528Z,39.52
2019-06-15T15:15:59.264Z,40.04
2019-06-15T15:18:29.796Z,38.87
2019-06-15T15:21:01.135Z,38.71
2019-06-15T15:23:31.969Z,37.58
2019-06-15T15:26:02.484Z,37.47
2019-06-15T15:28:32.696Z,38.34
2019-06-15T15:31:02.949Z,38.04
2019-06-15T15:33:35.861Z,38.11
2019-06-15T15:36:07.263Z,38.33
2019-06-15T15:38:37.806Z,38.56
2019-06-15T15:41:08.753Z,38.51
2019-06-15T15:43:39.657Z,39.29
2019-06-15T15:46:10.006Z,38.46
2019-06-15T15:48:40.232Z,38.28
2019-06-15T15:51:10.876Z,39.17
2019-06-15T15:53:41.091Z,38.69
2019-06-15T15:56:10.996Z,39.74
2019-06-15T15:58:40.991Z,38.90
2019-06-15T16:01:11.540Z,39.15
2019-06-15T16:03:41.781Z,38.90
2019-06-15T16:06:11.831Z,38.38
2019-06-15T16:08:42.058Z,39.03
2019-06-15T16:11:12.652Z,38.59
2019-06-15T16:13:45.936Z,38.97
2019-06-15T16:16:16.424Z,39.96
2019-06-15T16:18:47.995Z,40.02
2019-06-15T16:21:18.939Z,40.22
2019-06-15T16:23:48.862Z,40.06
2019-06-15T16:26:20.301Z,39.48
2019-06-15T16:28:51.605Z,40.42
2019-06-15T16:31:26.638Z,40.02
2019-06-15T16:33:55.802Z,38.84
2019-06-15T16:36:26.911Z,39.65
2019-06-15T16:42:08.180Z,39.66
2019-06-15T16:44:38.172Z,40.59
2019-06-15T16:47:08.688Z,41.79
2019-06-15T16:49:38.898Z,42.72
2019-06-15T16:52:09.096Z,43.33
2019-06-15T16:54:38.982Z,44.10
2019-06-15T16:57:08.886Z,44.33
2019-06-15T16:59:39.020Z,44.62
2019-06-15T17:02:09.507Z,45.14
2019-06-15T17:04:39.665Z,43.99
2019-06-15T17:07:09.631Z,42.67
2019-06-15T17:09:39.852Z,43.12
2019-06-15T17:12:09.906Z,42.49
2019-06-15T17:14:39.979Z,42.59
2019-06-15T17:17:10.174Z,43.40
2019-06-15T17:19:40.059Z,43.68
2019-06-15T17:22:18.738Z,45.06
2019-06-15T17:24:41.565Z,45.68
2019-06-15T17:27:11.569Z,45.83
2019-06-15T17:29:42.316Z,45.39
2019-06-15T17:32:12.426Z,44.54
2019-06-15T17:34:42.343Z,44.03
2019-06-15T17:37:12.241Z,44.81
2019-06-15T17:39:42.180Z,45.18
2019-06-15T17:42:12.122Z,44.99
2019-06-15T17:44:42.230Z,45.44
2019-06-15T17:47:12.061Z,45.47
2019-06-15T17:49:41.943Z,45.03
2019-06-15T17:52:12.089Z,44.33
2019-06-15T17:54:41.970Z,44.48
2019-06-15T17:57:11.861Z,44.85
2019-06-15T17:59:41.814Z,45.49
2019-06-15T18:02:11.645Z,45.88
2019-06-15T18:04:41.522Z,45.88
2019-06-15T18:07:11.346Z,46.68
2019-06-15T18:09:41.226Z,46.83
2019-06-15T18:12:11.107Z,47.26
2019-06-15T18:14:40.920Z,47.11
2019-06-15T18:17:10.881Z,47.15
2019-06-15T18:19:41.037Z,47.77
2019-06-15T18:22:10.915Z,48.47
2019-06-15T18:24:40.775Z,48.55
2019-06-15T18:27:10.654Z,48.86
2019-06-15T18:29:40.512Z,48.78
2019-06-15T18:32:10.507Z,48.95
2019-06-15T18:34:40.366Z,49.05
2019-06-15T18:37:10.290Z,49.32
2019-06-15T18:39:40.109Z,50.16
2019-06-15T18:42:10.189Z,50.75
2019-06-15T18:44:40.123Z,51.26
2019-06-15T18:47:09.983Z,51.10
2019-06-15T18:49:39.829Z,51.01
2019-06-15T18:52:09.691Z,51.66
2019-06-15T18:54:39.927Z,51.98
2019-06-15T18:57:09.778Z,52.34
2019-06-15T18:59:39.704Z,52.62
2019-06-15T19:02:09.534Z,52.96
2019-06-15T19:04:39.420Z,53.33
2019-06-15T19:07:09.362Z,53.83
2019-06-15T19:09:39.284Z,53.74
2019-06-15T19:12:09.459Z,53.29
2019-06-15T19:14:39.652Z,53.22
2019-06-15T19:17:09.574Z,53.42
2019-06-15T19:19:39.546Z,53.62
2019-06-15T19:22:09.645Z,54.00
2019-06-15T19:24:39.568Z,54.13
2019-06-15T19:27:09.550Z,54.36
2019-06-15T19:29:39.416Z,55.08
2019-06-15T19:32:09.616Z,55.21
2019-06-15T19:34:47.170Z,55.46
2019-06-15T19:37:11.682Z,55.21
2019-06-15T19:39:41.569Z,55.59
2019-06-15T19:42:11.672Z,55.37
2019-06-15T19:44:41.516Z,55.23
2019-06-15T19:47:11.346Z,54.45
2019-06-15T19:49:41.205Z,54.63
2019-06-15T19:52:11.059Z,54.49
2019-06-15T19:54:40.939Z,54.31
2019-06-15T19:57:10.817Z,53.68
2019-06-15T19:59:40.685Z,53.92
2019-06-15T20:02:10.971Z,53.78
2019-06-15T20:04:53.916Z,53.93
2019-06-15T20:07:13.337Z,54.16
2019-06-15T20:09:46.118Z,54.50
2019-06-15T20:12:21.530Z,55.10
2019-06-15T20:14:47.600Z,55.39
2019-06-15T20:17:17.615Z,56.05
2019-06-15T20:19:47.781Z,56.57
2019-06-15T20:22:17.784Z,57.03
2019-06-15T20:24:47.638Z,57.35
2019-06-15T20:27:17.475Z,57.54
2019-06-15T20:29:47.716Z,57.84
2019-06-15T20:32:17.662Z,58.13
2019-06-15T20:34:47.495Z,58.75
2019-06-15T20:37:17.479Z,58.75
2019-06-15T20:39:47.479Z,59.20
2019-06-15T20:42:17.442Z,59.60
2019-06-15T20:44:47.906Z,59.81
2019-06-15T20:47:17.800Z,60.10
2019-06-15T20:49:47.623Z,60.35
2019-06-15T20:52:17.618Z,60.52
2019-06-15T20:54:47.446Z,60.65
2019-06-15T20:57:17.348Z,60.48
2019-06-15T20:59:47.609Z,60.44
2019-06-15T21:02:17.475Z,60.37
2019-06-15T21:04:47.357Z,60.25
2019-06-15T21:07:17.205Z,59.96
2019-06-15T21:09:47.447Z,59.71
2019-06-15T21:12:17.648Z,59.52
2019-06-15T21:14:47.734Z,59.68
2019-06-15T21:17:18.220Z,60.06
2019-06-15T21:19:48.107Z,60.44
2019-06-15T21:22:18.352Z,60.25
2019-06-15T21:24:48.192Z,60.42
2019-06-15T21:27:18.100Z,60.57
2019-06-15T21:29:47.921Z,60.79
2019-06-15T21:32:17.897Z,61.29
2019-06-15T21:34:48.866Z,61.59
2019-06-15T21:37:18.800Z,61.89
2019-06-15T21:39:49.079Z,62.25
2019-06-15T21:42:18.992Z,62.86
2019-06-15T21:44:49.151Z,63.28
2019-06-15T21:47:19.017Z,63.27
2019-06-15T21:49:48.868Z,63.39
2019-06-15T21:52:18.761Z,63.48
2019-06-15T21:54:48.635Z,63.62
2019-06-15T21:57:19.267Z,63.87
2019-06-15T21:59:49.409Z,64.13
2019-06-15T22:02:19.298Z,64.47
2019-06-15T22:04:49.158Z,64.56
2019-06-15T22:07:19.011Z,64.67
2019-06-15T22:09:48.907Z,65.05
2019-06-15T22:12:18.728Z,64.88
2019-06-15T22:14:48.923Z,65.15
2019-06-15T22:17:18.828Z,65.77
2019-06-15T22:19:48.671Z,66.05
2019-06-15T22:22:18.741Z,66.71
2019-06-15T22:24:48.888Z,67.46
2019-06-15T22:27:18.780Z,67.77
2019-06-15T22:29:48.734Z,67.90
2019-06-15T22:32:18.638Z,68.21
2019-06-15T22:34:48.490Z,68.57
2019-06-15T22:37:18.334Z,69.15
2019-06-15T22:39:48.320Z,69.56
2019-06-15T22:42:18.223Z,70.33
2019-06-15T22:44:48.095Z,70.38
2019-06-15T22:47:17.998Z,70.41
2019-06-15T22:49:47.894Z,70.96
2019-06-15T22:52:17.837Z,70.81
2019-06-15T22:54:47.673Z,70.94
2019-06-15T22:57:17.565Z,70.90
2019-06-15T22:59:47.429Z,71.12
2019-06-15T23:02:17.698Z,71.08
2019-06-15T23:04:47.522Z,71.26
2019-06-15T23:07:17.404Z,71.16
2019-06-15T23:09:47.290Z,70.88
2019-06-15T23:12:17.115Z,70.85
2019-06-15T23:14:46.943Z,70.74
2019-06-15T23:17:16.833Z,70.57
2019-06-15T23:19:46.668Z,70.58
2019-06-15T23:22:17.173Z,70.58
2019-06-15T23:24:47.467Z,70.67
2019-06-15T23:27:17.679Z,70.87
2019-06-15T23:29:47.571Z,70.98
2019-06-15T23:32:20.572Z,70.80
2019-06-15T23:34:49.055Z,70.80
2019-06-15T23:37:20.795Z,70.85
2019-06-15T23:40:08.355Z,70.63
2019-06-15T23:42:38.416Z,70.44
2019-06-15T23:45:09.316Z,70.44
2019-06-15T23:47:39.217Z,70.29
2019-06-15T23:50:09.506Z,70.39
2019-06-15T23:52:39.796Z,70.64
2019-06-15T23:55:09.916Z,70.89
2019-06-15T23:57:39.782Z,71.03
